sensor_id;sensor_type;location;lat;lon;timestamp;P1;durP1;ratioP1;P2;durP2;ratioP2
4698;SDS011;33708;49.466;11.176;2023-05-29T00:00:01;16.90;;;3.80;;
4698;SDS011;33708;49.466;11.176;2023-05-29T00:02:31;14.13;;;4.50;;
4698;SDS011;33708;49.466;11.176;2023-05-29T00:04:57;13.80;;;3.90;;
4698;SDS011;33708;49.466;11.176;2023-05-29T00:07:22;15.97;;;4.90;;
4698;SDS011;33708;49.466;11.176;2023-05-29T00:09:48;14.07;;;4.47;;
4698;SDS011;33708;49.466;11.176;2023-05-29T00:12:14;15.43;;;4.70;;
4698;SDS011;33708;49.466;11.176;2023-05-29T00:14:40;13.97;;;3.90;;
4698;SDS011;33708;49.466;11.176;2023-05-29T00:17:05;13.73;;;3.77;;
4698;SDS011;33708;49.466;11.176;2023-05-29T00:19:31;16.37;;;3.90;;
4698;SDS011;33708;49.466;11.176;2023-05-29T00:21:57;12.60;;;3.90;;
4698;SDS011;33708;49.466;11.176;2023-05-29T00:24:22;13.13;;;3.43;;
4698;SDS011;33708;49.466;11.176;2023-05-29T00:26:48;13.33;;;4.27;;
4698;SDS011;33708;49.466;11.176;2023-05-29T00:29:13;18.43;;;4.60;;
4698;SDS011;33708;49.466;11.176;2023-05-29T00:31:43;14.80;;;4.23;;
4698;SDS011;33708;49.466;11.176;2023-05-29T00:36:56;16.90;;;4.57;;
4698;SDS011;33708;49.466;11.176;2023-05-29T00:39:22;14.53;;;4.13;;
4698;SDS011;33708;49.466;11.176;2023-05-29T00:41:48;14.30;;;4.23;;
4698;SDS011;33708;49.466;11.176;2023-05-29T00:44:20;14.50;;;4.50;;
4698;SDS011;33708;49.466;11.176;2023-05-29T00:46:46;16.80;;;4.67;;
4698;SDS011;33708;49.466;11.176;2023-05-29T00:49:13;15.30;;;4.00;;
4698;SDS011;33708;49.466;11.176;2023-05-29T00:51:40;15.07;;;4.60;;
4698;SDS011;33708;49.466;11.176;2023-05-29T00:54:08;11.97;;;3.57;;
4698;SDS011;33708;49.466;11.176;2023-05-29T00:56:41;19.00;;;4.47;;
4698;SDS011;33708;49.466;11.176;2023-05-29T00:59:12;13.10;;;4.23;;
4698;SDS011;33708;49.466;11.176;2023-05-29T01:01:38;13.30;;;4.10;;
4698;SDS011;33708;49.466;11.176;2023-05-29T01:04:05;15.60;;;3.83;;
4698;SDS011;33708;49.466;11.176;2023-05-29T01:06:32;16.30;;;4.23;;
4698;SDS011;33708;49.466;11.176;2023-05-29T01:08:57;18.43;;;4.97;;
4698;SDS011;33708;49.466;11.176;2023-05-29T01:11:47;14.10;;;4.13;;
4698;SDS011;33708;49.466;11.176;2023-05-29T01:20:31;13.40;;;4.20;;
4698;SDS011;33708;49.466;11.176;2023-05-29T01:23:07;13.23;;;3.87;;
4698;SDS011;33708;49.466;11.176;2023-05-29T01:28:07;16.20;;;4.40;;
4698;SDS011;33708;49.466;11.176;2023-05-29T01:30:36;14.77;;;4.07;;
4698;SDS011;33708;49.466;11.176;2023-05-29T01:33:04;17.30;;;4.20;;
4698;SDS011;33708;49.466;11.176;2023-05-29T01:35:30;13.87;;;4.40;;
4698;SDS011;33708;49.466;11.176;2023-05-29T01:37:57;15.87;;;4.47;;
4698;SDS011;33708;49.466;11.176;2023-05-29T01:40:23;15.80;;;4.67;;
4698;SDS011;33708;49.466;11.176;2023-05-29T01:42:49;13.73;;;4.40;;
4698;SDS011;33708;49.466;11.176;2023-05-29T01:45:15;16.63;;;4.50;;
4698;SDS011;33708;49.466;11.176;2023-05-29T01:47:42;14.63;;;4.33;;
4698;SDS011;33708;49.466;11.176;2023-05-29T01:50:07;14.83;;;4.20;;
4698;SDS011;33708;49.466;11.176;2023-05-29T01:52:35;16.83;;;4.50;;
4698;SDS011;33708;49.466;11.176;2023-05-29T01:55:02;14.10;;;4.87;;
4698;SDS011;33708;49.466;11.176;2023-05-29T01:57:28;14.13;;;4.43;;
4698;SDS011;33708;49.466;11.176;2023-05-29T01:59:54;14.20;;;4.37;;
4698;SDS011;33708;49.466;11.176;2023-05-29T02:02:21;16.27;;;4.70;;
4698;SDS011;33708;49.466;11.176;2023-05-29T02:04:48;14.17;;;4.77;;
4698;SDS011;33708;49.466;11.176;2023-05-29T02:07:13;16.80;;;4.63;;
4698;SDS011;33708;49.466;11.176;2023-05-29T02:09:40;13.63;;;4.00;;
4698;SDS011;33708;49.466;11.176;2023-05-29T02:12:06;13.47;;;4.17;;
4698;SDS011;33708;49.466;11.176;2023-05-29T02:14:32;14.33;;;4.63;;
4698;SDS011;33708;49.466;11.176;2023-05-29T02:16:58;20.93;;;4.70;;
4698;SDS011;33708;49.466;11.176;2023-05-29T02:19:26;17.20;;;4.90;;
4698;SDS011;33708;49.466;11.176;2023-05-29T02:21:52;13.00;;;3.97;;
4698;SDS011;33708;49.466;11.176;2023-05-29T02:24:18;13.27;;;4.27;;
4698;SDS011;33708;49.466;11.176;2023-05-29T02:26:43;18.37;;;4.80;;
4698;SDS011;33708;49.466;11.176;2023-05-29T02:29:14;15.40;;;4.00;;
4698;SDS011;33708;49.466;11.176;2023-05-29T02:31:40;23.60;;;4.87;;
4698;SDS011;33708;49.466;11.176;2023-05-29T02:34:06;16.03;;;4.93;;
4698;SDS011;33708;49.466;11.176;2023-05-29T02:36:48;15.83;;;4.57;;
4698;SDS011;33708;49.466;11.176;2023-05-29T02:39:20;16.30;;;4.90;;
4698;SDS011;33708;49.466;11.176;2023-05-29T02:41:46;16.07;;;4.73;;
4698;SDS011;33708;49.466;11.176;2023-05-29T02:44:11;15.77;;;4.50;;
4698;SDS011;33708;49.466;11.176;2023-05-29T02:46:37;18.57;;;4.87;;
4698;SDS011;33708;49.466;11.176;2023-05-29T02:49:03;14.93;;;5.00;;
4698;SDS011;33708;49.466;11.176;2023-05-29T02:51:28;16.43;;;4.63;;
4698;SDS011;33708;49.466;11.176;2023-05-29T02:53:55;17.47;;;4.70;;
4698;SDS011;33708;49.466;11.176;2023-05-29T02:56:20;13.17;;;5.00;;
4698;SDS011;33708;49.466;11.176;2023-05-29T02:58:48;14.13;;;4.50;;
4698;SDS011;33708;49.466;11.176;2023-05-29T03:01:17;12.57;;;4.27;;
4698;SDS011;33708;49.466;11.176;2023-05-29T03:03:43;19.67;;;4.87;;
4698;SDS011;33708;49.466;11.176;2023-05-29T03:06:09;16.73;;;4.80;;
4698;SDS011;33708;49.466;11.176;2023-05-29T03:08:37;15.33;;;4.03;;
4698;SDS011;33708;49.466;11.176;2023-05-29T03:11:07;16.07;;;5.37;;
4698;SDS011;33708;49.466;11.176;2023-05-29T03:13:35;17.57;;;4.50;;
4698;SDS011;33708;49.466;11.176;2023-05-29T03:16:02;13.63;;;4.53;;
4698;SDS011;33708;49.466;11.176;2023-05-29T03:18:27;15.33;;;4.83;;
4698;SDS011;33708;49.466;11.176;2023-05-29T03:20:53;14.00;;;4.70;;
4698;SDS011;33708;49.466;11.176;2023-05-29T03:23:19;16.00;;;4.63;;
4698;SDS011;33708;49.466;11.176;2023-05-29T03:25:45;17.73;;;5.20;;
4698;SDS011;33708;49.466;11.176;2023-05-29T03:28:10;19.27;;;5.47;;
4698;SDS011;33708;49.466;11.176;2023-05-29T03:30:36;12.97;;;4.53;;
4698;SDS011;33708;49.466;11.176;2023-05-29T03:33:02;14.60;;;4.27;;
4698;SDS011;33708;49.466;11.176;2023-05-29T03:35:31;14.83;;;4.77;;
4698;SDS011;33708;49.466;11.176;2023-05-29T03:37:57;17.90;;;4.93;;
4698;SDS011;33708;49.466;11.176;2023-05-29T03:40:22;17.70;;;5.10;;
4698;SDS011;33708;49.466;11.176;2023-05-29T03:42:48;17.87;;;5.40;;
4698;SDS011;33708;49.466;11.176;2023-05-29T03:45:14;14.97;;;5.37;;
4698;SDS011;33708;49.466;11.176;2023-05-29T03:47:40;14.57;;;5.60;;
4698;SDS011;33708;49.466;11.176;2023-05-29T03:50:05;16.13;;;5.10;;
4698;SDS011;33708;49.466;11.176;2023-05-29T03:52:31;19.07;;;5.87;;
4698;SDS011;33708;49.466;11.176;2023-05-29T03:54:57;16.77;;;8.10;;
4698;SDS011;33708;49.466;11.176;2023-05-29T03:57:22;16.60;;;8.70;;
4698;SDS011;33708;49.466;11.176;2023-05-29T03:59:48;17.60;;;9.83;;
4698;SDS011;33708;49.466;11.176;2023-05-29T04:02:13;17.43;;;9.40;;
4698;SDS011;33708;49.466;11.176;2023-05-29T04:04:39;20.93;;;10.27;;
4698;SDS011;33708;49.466;11.176;2023-05-29T04:07:05;18.60;;;8.37;;
4698;SDS011;33708;49.466;11.176;2023-05-29T04:09:32;19.70;;;6.87;;
4698;SDS011;33708;49.466;11.176;2023-05-29T04:11:58;17.60;;;7.10;;
4698;SDS011;33708;49.466;11.176;2023-05-29T04:14:24;13.60;;;5.53;;
4698;SDS011;33708;49.466;11.176;2023-05-29T04:16:50;15.10;;;4.90;;
4698;SDS011;33708;49.466;11.176;2023-05-29T04:19:15;14.90;;;5.47;;
4698;SDS011;33708;49.466;11.176;2023-05-29T04:21:41;14.40;;;5.27;;
4698;SDS011;33708;49.466;11.176;2023-05-29T04:24:07;14.47;;;4.57;;
4698;SDS011;33708;49.466;11.176;2023-05-29T04:26:33;17.87;;;4.90;;
4698;SDS011;33708;49.466;11.176;2023-05-29T04:28:58;15.10;;;4.60;;
4698;SDS011;33708;49.466;11.176;2023-05-29T04:31:24;13.90;;;4.30;;
4698;SDS011;33708;49.466;11.176;2023-05-29T04:33:54;16.63;;;4.67;;
4698;SDS011;33708;49.466;11.176;2023-05-29T04:36:23;12.90;;;4.07;;
4698;SDS011;33708;49.466;11.176;2023-05-29T04:38:54;13.50;;;4.50;;
4698;SDS011;33708;49.466;11.176;2023-05-29T04:41:20;13.00;;;4.27;;
4698;SDS011;33708;49.466;11.176;2023-05-29T04:43:48;13.80;;;3.90;;
4698;SDS011;33708;49.466;11.176;2023-05-29T04:46:16;11.70;;;3.70;;
4698;SDS011;33708;49.466;11.176;2023-05-29T04:48:42;13.00;;;4.00;;
4698;SDS011;33708;49.466;11.176;2023-05-29T04:51:08;18.40;;;4.23;;
4698;SDS011;33708;49.466;11.176;2023-05-29T04:53:36;13.10;;;4.80;;
4698;SDS011;33708;49.466;11.176;2023-05-29T04:56:06;13.83;;;3.80;;
4698;SDS011;33708;49.466;11.176;2023-05-29T04:58:31;13.33;;;3.90;;
4698;SDS011;33708;49.466;11.176;2023-05-29T05:00:57;13.90;;;4.10;;
4698;SDS011;33708;49.466;11.176;2023-05-29T05:03:22;15.30;;;4.43;;
4698;SDS011;33708;49.466;11.176;2023-05-29T05:05:50;13.87;;;4.13;;
4698;SDS011;33708;49.466;11.176;2023-05-29T05:08:16;12.50;;;4.13;;
4698;SDS011;33708;49.466;11.176;2023-05-29T05:10:42;12.87;;;4.53;;
4698;SDS011;33708;49.466;11.176;2023-05-29T05:13:08;13.70;;;3.90;;
4698;SDS011;33708;49.466;11.176;2023-05-29T05:15:36;13.50;;;4.23;;
4698;SDS011;33708;49.466;11.176;2023-05-29T05:18:01;14.90;;;4.20;;
4698;SDS011;33708;49.466;11.176;2023-05-29T05:20:27;16.57;;;4.60;;
4698;SDS011;33708;49.466;11.176;2023-05-29T05:22:52;14.30;;;4.13;;
4698;SDS011;33708;49.466;11.176;2023-05-29T05:25:18;14.77;;;4.30;;
4698;SDS011;33708;49.466;11.176;2023-05-29T05:27:43;13.07;;;4.50;;
4698;SDS011;33708;49.466;11.176;2023-05-29T05:30:09;15.60;;;4.50;;
4698;SDS011;33708;49.466;11.176;2023-05-29T05:32:35;14.13;;;3.73;;
4698;SDS011;33708;49.466;11.176;2023-05-29T05:35:01;14.00;;;4.20;;
4698;SDS011;33708;49.466;11.176;2023-05-29T05:37:26;16.53;;;3.90;;
4698;SDS011;33708;49.466;11.176;2023-05-29T05:39:52;14.17;;;4.10;;
4698;SDS011;33708;49.466;11.176;2023-05-29T05:42:18;11.33;;;3.63;;
4698;SDS011;33708;49.466;11.176;2023-05-29T05:44:44;15.40;;;3.60;;
4698;SDS011;33708;49.466;11.176;2023-05-29T05:47:10;14.30;;;3.80;;
4698;SDS011;33708;49.466;11.176;2023-05-29T05:49:36;15.70;;;4.10;;
4698;SDS011;33708;49.466;11.176;2023-05-29T05:52:01;11.50;;;3.63;;
4698;SDS011;33708;49.466;11.176;2023-05-29T05:54:27;16.60;;;3.73;;
4698;SDS011;33708;49.466;11.176;2023-05-29T05:56:52;16.20;;;4.60;;
4698;SDS011;33708;49.466;11.176;2023-05-29T05:59:18;12.43;;;4.03;;
4698;SDS011;33708;49.466;11.176;2023-05-29T06:01:44;16.30;;;4.07;;
4698;SDS011;33708;49.466;11.176;2023-05-29T06:04:09;14.67;;;4.47;;
4698;SDS011;33708;49.466;11.176;2023-05-29T06:06:35;14.10;;;4.30;;
4698;SDS011;33708;49.466;11.176;2023-05-29T06:09:01;12.87;;;3.90;;
4698;SDS011;33708;49.466;11.176;2023-05-29T06:11:26;13.97;;;4.13;;
4698;SDS011;33708;49.466;11.176;2023-05-29T06:13:52;13.23;;;3.80;;
4698;SDS011;33708;49.466;11.176;2023-05-29T06:16:18;13.53;;;4.00;;
4698;SDS011;33708;49.466;11.176;2023-05-29T06:18:44;14.77;;;3.77;;
4698;SDS011;33708;49.466;11.176;2023-05-29T06:21:11;16.03;;;3.93;;
4698;SDS011;33708;49.466;11.176;2023-05-29T06:23:37;12.37;;;4.10;;
4698;SDS011;33708;49.466;11.176;2023-05-29T06:26:03;11.37;;;4.00;;
4698;SDS011;33708;49.466;11.176;2023-05-29T06:28:29;14.00;;;3.90;;
4698;SDS011;33708;49.466;11.176;2023-05-29T06:30:55;14.57;;;3.90;;
4698;SDS011;33708;49.466;11.176;2023-05-29T06:33:21;16.97;;;3.40;;
4698;SDS011;33708;49.466;11.176;2023-05-29T06:35:47;11.27;;;3.57;;
4698;SDS011;33708;49.466;11.176;2023-05-29T06:38:15;11.20;;;3.83;;
4698;SDS011;33708;49.466;11.176;2023-05-29T06:40:41;15.17;;;4.30;;
4698;SDS011;33708;49.466;11.176;2023-05-29T06:43:06;10.60;;;3.30;;
4698;SDS011;33708;49.466;11.176;2023-05-29T06:45:34;11.10;;;3.40;;
4698;SDS011;33708;49.466;11.176;2023-05-29T06:48:00;14.10;;;3.87;;
4698;SDS011;33708;49.466;11.176;2023-05-29T06:50:25;11.90;;;3.80;;
4698;SDS011;33708;49.466;11.176;2023-05-29T06:52:51;14.07;;;3.90;;
4698;SDS011;33708;49.466;11.176;2023-05-29T06:55:16;14.33;;;4.00;;
4698;SDS011;33708;49.466;11.176;2023-05-29T06:57:42;13.23;;;4.20;;
4698;SDS011;33708;49.466;11.176;2023-05-29T07:00:08;18.60;;;4.30;;
4698;SDS011;33708;49.466;11.176;2023-05-29T07:02:36;11.87;;;3.80;;
4698;SDS011;33708;49.466;11.176;2023-05-29T07:05:01;12.70;;;3.37;;
4698;SDS011;33708;49.466;11.176;2023-05-29T07:07:27;12.27;;;3.50;;
4698;SDS011;33708;49.466;11.176;2023-05-29T07:09:53;13.50;;;4.00;;
4698;SDS011;33708;49.466;11.176;2023-05-29T07:12:18;13.93;;;3.67;;
4698;SDS011;33708;49.466;11.176;2023-05-29T07:14:44;13.33;;;4.17;;
4698;SDS011;33708;49.466;11.176;2023-05-29T07:17:13;11.00;;;3.33;;
4698;SDS011;33708;49.466;11.176;2023-05-29T07:19:39;12.33;;;3.80;;
4698;SDS011;33708;49.466;11.176;2023-05-29T07:22:04;15.93;;;3.87;;
4698;SDS011;33708;49.466;11.176;2023-05-29T07:24:30;13.57;;;3.37;;
4698;SDS011;33708;49.466;11.176;2023-05-29T07:26:55;12.83;;;3.53;;
4698;SDS011;33708;49.466;11.176;2023-05-29T07:29:21;12.67;;;3.80;;
4698;SDS011;33708;49.466;11.176;2023-05-29T07:31:48;13.00;;;3.40;;
4698;SDS011;33708;49.466;11.176;2023-05-29T07:34:16;11.20;;;3.87;;
4698;SDS011;33708;49.466;11.176;2023-05-29T07:39:28;12.97;;;3.60;;
4698;SDS011;33708;49.466;11.176;2023-05-29T07:41:54;12.53;;;3.43;;
4698;SDS011;33708;49.466;11.176;2023-05-29T07:44:20;10.57;;;3.27;;
4698;SDS011;33708;49.466;11.176;2023-05-29T07:46:46;12.07;;;3.27;;
4698;SDS011;33708;49.466;11.176;2023-05-29T07:49:12;12.80;;;3.70;;
4698;SDS011;33708;49.466;11.176;2023-05-29T07:51:38;15.30;;;4.13;;
4698;SDS011;33708;49.466;11.176;2023-05-29T07:54:04;12.33;;;3.40;;
4698;SDS011;33708;49.466;11.176;2023-05-29T07:56:30;12.10;;;3.17;;
4698;SDS011;33708;49.466;11.176;2023-05-29T07:58:56;11.13;;;3.20;;
4698;SDS011;33708;49.466;11.176;2023-05-29T08:01:22;10.53;;;3.40;;
4698;SDS011;33708;49.466;11.176;2023-05-29T08:03:48;11.70;;;3.27;;
4698;SDS011;33708;49.466;11.176;2023-05-29T08:06:14;12.40;;;3.67;;
4698;SDS011;33708;49.466;11.176;2023-05-29T08:08:39;15.13;;;3.20;;
4698;SDS011;33708;49.466;11.176;2023-05-29T08:11:05;12.00;;;3.03;;
4698;SDS011;33708;49.466;11.176;2023-05-29T08:13:31;12.27;;;3.33;;
4698;SDS011;33708;49.466;11.176;2023-05-29T08:15:56;12.37;;;3.27;;
4698;SDS011;33708;49.466;11.176;2023-05-29T08:18:24;12.20;;;3.20;;
4698;SDS011;33708;49.466;11.176;2023-05-29T08:20:51;10.60;;;2.97;;
4698;SDS011;33708;49.466;11.176;2023-05-29T08:23:20;24.40;;;3.83;;
4698;SDS011;33708;49.466;11.176;2023-05-29T08:25:46;11.67;;;3.70;;
4698;SDS011;33708;49.466;11.176;2023-05-29T08:28:12;15.40;;;3.87;;
4698;SDS011;33708;49.466;11.176;2023-05-29T08:30:39;11.37;;;3.37;;
4698;SDS011;33708;49.466;11.176;2023-05-29T08:33:05;13.60;;;3.70;;
4698;SDS011;33708;49.466;11.176;2023-05-29T08:35:31;11.20;;;3.00;;
4698;SDS011;33708;49.466;11.176;2023-05-29T08:37:58;11.37;;;3.00;;
4698;SDS011;33708;49.466;11.176;2023-05-29T08:40:24;18.10;;;3.30;;
4698;SDS011;33708;49.466;11.176;2023-05-29T08:42:56;31.23;;;4.27;;
4698;SDS011;33708;49.466;11.176;2023-05-29T08:45:24;11.97;;;3.40;;
4698;SDS011;33708;49.466;11.176;2023-05-29T08:47:51;11.33;;;3.37;;
4698;SDS011;33708;49.466;11.176;2023-05-29T08:50:19;16.43;;;3.30;;
4698;SDS011;33708;49.466;11.176;2023-05-29T08:52:46;16.03;;;3.87;;
4698;SDS011;33708;49.466;11.176;2023-05-29T08:55:11;11.80;;;3.53;;
4698;SDS011;33708;49.466;11.176;2023-05-29T08:57:38;10.60;;;2.93;;
4698;SDS011;33708;49.466;11.176;2023-05-29T09:00:04;12.70;;;3.30;;
4698;SDS011;33708;49.466;11.176;2023-05-29T09:02:38;14.43;;;3.50;;
4698;SDS011;33708;49.466;11.176;2023-05-29T09:05:04;11.87;;;3.40;;
4698;SDS011;33708;49.466;11.176;2023-05-29T09:07:31;11.23;;;2.90;;
4698;SDS011;33708;49.466;11.176;2023-05-29T09:09:57;17.93;;;3.33;;
4698;SDS011;33708;49.466;11.176;2023-05-29T09:12:24;11.30;;;3.57;;
4698;SDS011;33708;49.466;11.176;2023-05-29T09:14:50;16.63;;;3.20;;
4698;SDS011;33708;49.466;11.176;2023-05-29T09:17:15;11.00;;;3.30;;
4698;SDS011;33708;49.466;11.176;2023-05-29T09:19:41;11.67;;;3.57;;
4698;SDS011;33708;49.466;11.176;2023-05-29T09:22:12;14.50;;;3.97;;
4698;SDS011;33708;49.466;11.176;2023-05-29T09:24:40;11.80;;;3.50;;
4698;SDS011;33708;49.466;11.176;2023-05-29T09:27:07;21.57;;;3.60;;
4698;SDS011;33708;49.466;11.176;2023-05-29T09:29:40;14.00;;;3.43;;
4698;SDS011;33708;49.466;11.176;2023-05-29T09:32:10;11.23;;;3.50;;
4698;SDS011;33708;49.466;11.176;2023-05-29T09:34:37;16.83;;;3.47;;
4698;SDS011;33708;49.466;11.176;2023-05-29T09:37:07;13.47;;;3.30;;
4698;SDS011;33708;49.466;11.176;2023-05-29T09:39:50;12.40;;;3.30;;
4698;SDS011;33708;49.466;11.176;2023-05-29T09:42:19;13.97;;;3.30;;
4698;SDS011;33708;49.466;11.176;2023-05-29T09:44:46;11.40;;;2.93;;
4698;SDS011;33708;49.466;11.176;2023-05-29T09:47:16;12.50;;;3.50;;
4698;SDS011;33708;49.466;11.176;2023-05-29T09:49:43;14.70;;;3.53;;
4698;SDS011;33708;49.466;11.176;2023-05-29T09:52:12;11.87;;;2.90;;
4698;SDS011;33708;49.466;11.176;2023-05-29T09:54:41;12.83;;;3.87;;
4698;SDS011;33708;49.466;11.176;2023-05-29T09:57:10;14.97;;;3.63;;
4698;SDS011;33708;49.466;11.176;2023-05-29T09:59:41;13.20;;;4.03;;
4698;SDS011;33708;49.466;11.176;2023-05-29T10:02:16;13.80;;;3.70;;
4698;SDS011;33708;49.466;11.176;2023-05-29T10:04:43;11.30;;;3.70;;
4698;SDS011;33708;49.466;11.176;2023-05-29T10:07:27;14.33;;;3.77;;
4698;SDS011;33708;49.466;11.176;2023-05-29T10:10:00;13.13;;;3.40;;
4698;SDS011;33708;49.466;11.176;2023-05-29T10:12:28;30.33;;;3.43;;
4698;SDS011;33708;49.466;11.176;2023-05-29T10:14:56;14.30;;;3.63;;
4698;SDS011;33708;49.466;11.176;2023-05-29T10:17:25;18.20;;;3.60;;
4698;SDS011;33708;49.466;11.176;2023-05-29T10:19:53;23.97;;;5.57;;
4698;SDS011;33708;49.466;11.176;2023-05-29T10:22:23;12.17;;;3.67;;
4698;SDS011;33708;49.466;11.176;2023-05-29T10:24:51;13.30;;;3.67;;
4698;SDS011;33708;49.466;11.176;2023-05-29T10:27:18;14.47;;;3.33;;
4698;SDS011;33708;49.466;11.176;2023-05-29T10:29:56;10.93;;;3.03;;
4698;SDS011;33708;49.466;11.176;2023-05-29T10:32:36;10.43;;;2.80;;
4698;SDS011;33708;49.466;11.176;2023-05-29T10:35:27;12.23;;;3.80;;
4698;SDS011;33708;49.466;11.176;2023-05-29T10:38:02;15.03;;;3.63;;
4698;SDS011;33708;49.466;11.176;2023-05-29T10:40:43;11.33;;;3.70;;
4698;SDS011;33708;49.466;11.176;2023-05-29T10:43:19;16.50;;;4.33;;
4698;SDS011;33708;49.466;11.176;2023-05-29T10:46:02;17.00;;;3.33;;
4698;SDS011;33708;49.466;11.176;2023-05-29T10:51:02;18.10;;;4.20;;
4698;SDS011;33708;49.466;11.176;2023-05-29T10:53:31;18.40;;;3.50;;
4698;SDS011;33708;49.466;11.176;2023-05-29T10:55:59;12.53;;;3.43;;
4698;SDS011;33708;49.466;11.176;2023-05-29T10:58:26;20.80;;;3.23;;
4698;SDS011;33708;49.466;11.176;2023-05-29T11:00:55;11.60;;;3.30;;
4698;SDS011;33708;49.466;11.176;2023-05-29T11:03:30;13.60;;;3.27;;
4698;SDS011;33708;49.466;11.176;2023-05-29T11:08:45;12.50;;;3.17;;
4698;SDS011;33708;49.466;11.176;2023-05-29T11:11:12;11.00;;;3.00;;
4698;SDS011;33708;49.466;11.176;2023-05-29T11:13:39;12.83;;;3.30;;
4698;SDS011;33708;49.466;11.176;2023-05-29T11:18:41;11.60;;;2.97;;
4698;SDS011;33708;49.466;11.176;2023-05-29T11:21:15;9.37;;;2.70;;
4698;SDS011;33708;49.466;11.176;2023-05-29T11:23:50;12.00;;;2.70;;
4698;SDS011;33708;49.466;11.176;2023-05-29T11:26:19;10.87;;;2.87;;
4698;SDS011;33708;49.466;11.176;2023-05-29T11:28:48;10.90;;;3.20;;
4698;SDS011;33708;49.466;11.176;2023-05-29T11:31:14;13.43;;;3.33;;
4698;SDS011;33708;49.466;11.176;2023-05-29T11:33:42;11.80;;;3.47;;
4698;SDS011;33708;49.466;11.176;2023-05-29T11:36:14;11.20;;;3.23;;
4698;SDS011;33708;49.466;11.176;2023-05-29T11:38:41;10.97;;;3.60;;
4698;SDS011;33708;49.466;11.176;2023-05-29T11:41:07;13.30;;;3.43;;
4698;SDS011;33708;49.466;11.176;2023-05-29T11:43:34;13.60;;;3.90;;
4698;SDS011;33708;49.466;11.176;2023-05-29T11:46:00;10.57;;;3.10;;
4698;SDS011;33708;49.466;11.176;2023-05-29T11:48:25;10.43;;;2.93;;
4698;SDS011;33708;49.466;11.176;2023-05-29T11:50:52;10.30;;;2.90;;
4698;SDS011;33708;49.466;11.176;2023-05-29T11:53:17;11.70;;;3.40;;
4698;SDS011;33708;49.466;11.176;2023-05-29T11:55:43;11.70;;;2.77;;
4698;SDS011;33708;49.466;11.176;2023-05-29T11:58:09;13.83;;;3.70;;
4698;SDS011;33708;49.466;11.176;2023-05-29T12:00:36;14.20;;;2.93;;
4698;SDS011;33708;49.466;11.176;2023-05-29T12:03:04;9.57;;;2.50;;
4698;SDS011;33708;49.466;11.176;2023-05-29T12:05:31;11.30;;;3.00;;
4698;SDS011;33708;49.466;11.176;2023-05-29T12:08:14;10.73;;;2.70;;
4698;SDS011;33708;49.466;11.176;2023-05-29T12:10:46;12.97;;;3.07;;
4698;SDS011;33708;49.466;11.176;2023-05-29T12:13:13;11.70;;;2.70;;
4698;SDS011;33708;49.466;11.176;2023-05-29T12:15:42;14.03;;;3.00;;
4698;SDS011;33708;49.466;11.176;2023-05-29T12:18:09;10.10;;;2.83;;
4698;SDS011;33708;49.466;11.176;2023-05-29T12:20:35;11.17;;;3.50;;
4698;SDS011;33708;49.466;11.176;2023-05-29T12:23:01;10.90;;;3.17;;
4698;SDS011;33708;49.466;11.176;2023-05-29T12:25:27;14.03;;;2.80;;
4698;SDS011;33708;49.466;11.176;2023-05-29T12:27:55;10.43;;;2.87;;
4698;SDS011;33708;49.466;11.176;2023-05-29T12:30:21;15.90;;;3.17;;
4698;SDS011;33708;49.466;11.176;2023-05-29T12:32:48;28.47;;;3.63;;
4698;SDS011;33708;49.466;11.176;2023-05-29T12:35:17;19.50;;;3.40;;
4698;SDS011;33708;49.466;11.176;2023-05-29T12:37:54;12.77;;;2.57;;
4698;SDS011;33708;49.466;11.176;2023-05-29T12:42:47;13.60;;;2.90;;
4698;SDS011;33708;49.466;11.176;2023-05-29T12:45:13;10.93;;;2.73;;
4698;SDS011;33708;49.466;11.176;2023-05-29T12:47:46;10.90;;;3.10;;
4698;SDS011;33708;49.466;11.176;2023-05-29T12:55:27;10.07;;;2.60;;
4698;SDS011;33708;49.466;11.176;2023-05-29T12:57:54;12.50;;;2.87;;
4698;SDS011;33708;49.466;11.176;2023-05-29T13:00:20;10.70;;;2.70;;
4698;SDS011;33708;49.466;11.176;2023-05-29T13:02:50;11.57;;;3.03;;
4698;SDS011;33708;49.466;11.176;2023-05-29T13:05:16;11.73;;;3.50;;
4698;SDS011;33708;49.466;11.176;2023-05-29T13:07:43;11.90;;;3.33;;
4698;SDS011;33708;49.466;11.176;2023-05-29T13:10:11;12.93;;;2.80;;
4698;SDS011;33708;49.466;11.176;2023-05-29T13:12:36;12.33;;;3.10;;
4698;SDS011;33708;49.466;11.176;2023-05-29T13:15:02;10.60;;;2.93;;
4698;SDS011;33708;49.466;11.176;2023-05-29T13:17:28;13.13;;;3.00;;
4698;SDS011;33708;49.466;11.176;2023-05-29T13:19:54;14.57;;;3.30;;
4698;SDS011;33708;49.466;11.176;2023-05-29T13:22:19;10.87;;;2.77;;
4698;SDS011;33708;49.466;11.176;2023-05-29T13:24:45;13.20;;;3.07;;
4698;SDS011;33708;49.466;11.176;2023-05-29T13:27:11;12.83;;;3.47;;
4698;SDS011;33708;49.466;11.176;2023-05-29T13:29:39;12.80;;;3.20;;
4698;SDS011;33708;49.466;11.176;2023-05-29T13:32:06;10.50;;;2.97;;
4698;SDS011;33708;49.466;11.176;2023-05-29T13:34:31;13.80;;;3.07;;
4698;SDS011;33708;49.466;11.176;2023-05-29T13:36:57;11.93;;;3.00;;
4698;SDS011;33708;49.466;11.176;2023-05-29T13:39:23;13.00;;;3.00;;
4698;SDS011;33708;49.466;11.176;2023-05-29T13:41:49;10.70;;;3.13;;
4698;SDS011;33708;49.466;11.176;2023-05-29T13:44:15;10.87;;;2.97;;
4698;SDS011;33708;49.466;11.176;2023-05-29T13:46:41;12.40;;;2.93;;
4698;SDS011;33708;49.466;11.176;2023-05-29T13:49:06;10.90;;;2.80;;
4698;SDS011;33708;49.466;11.176;2023-05-29T13:51:32;13.23;;;2.90;;
4698;SDS011;33708;49.466;11.176;2023-05-29T13:53:59;12.93;;;3.03;;
4698;SDS011;33708;49.466;11.176;2023-05-29T13:56:24;10.90;;;2.70;;
4698;SDS011;33708;49.466;11.176;2023-05-29T13:58:53;9.97;;;2.63;;
4698;SDS011;33708;49.466;11.176;2023-05-29T14:01:19;10.43;;;2.80;;
4698;SDS011;33708;49.466;11.176;2023-05-29T14:03:45;13.77;;;3.37;;
4698;SDS011;33708;49.466;11.176;2023-05-29T14:06:10;18.73;;;3.23;;
4698;SDS011;33708;49.466;11.176;2023-05-29T14:08:36;10.93;;;2.90;;
4698;SDS011;33708;49.466;11.176;2023-05-29T14:11:02;19.60;;;3.20;;
4698;SDS011;33708;49.466;11.176;2023-05-29T14:13:28;10.60;;;3.30;;
4698;SDS011;33708;49.466;11.176;2023-05-29T14:15:54;10.80;;;3.10;;
4698;SDS011;33708;49.466;11.176;2023-05-29T14:18:24;10.80;;;3.27;;
4698;SDS011;33708;49.466;11.176;2023-05-29T14:20:49;12.30;;;2.90;;
4698;SDS011;33708;49.466;11.176;2023-05-29T14:23:18;11.23;;;3.00;;
4698;SDS011;33708;49.466;11.176;2023-05-29T14:25:43;12.13;;;2.67;;
4698;SDS011;33708;49.466;11.176;2023-05-29T14:28:10;11.87;;;3.10;;
4698;SDS011;33708;49.466;11.176;2023-05-29T14:30:39;14.93;;;3.20;;
4698;SDS011;33708;49.466;11.176;2023-05-29T14:33:04;11.00;;;3.43;;
4698;SDS011;33708;49.466;11.176;2023-05-29T14:35:30;9.93;;;2.83;;
4698;SDS011;33708;49.466;11.176;2023-05-29T14:37:56;10.57;;;3.00;;
4698;SDS011;33708;49.466;11.176;2023-05-29T14:40:22;11.40;;;3.30;;
4698;SDS011;33708;49.466;11.176;2023-05-29T14:42:48;10.10;;;3.00;;
4698;SDS011;33708;49.466;11.176;2023-05-29T14:45:14;12.90;;;2.77;;
4698;SDS011;33708;49.466;11.176;2023-05-29T14:47:41;14.03;;;3.43;;
4698;SDS011;33708;49.466;11.176;2023-05-29T14:50:07;13.03;;;3.23;;
4698;SDS011;33708;49.466;11.176;2023-05-29T14:52:33;12.30;;;2.80;;
4698;SDS011;33708;49.466;11.176;2023-05-29T14:55:01;12.67;;;3.57;;
4698;SDS011;33708;49.466;11.176;2023-05-29T14:57:27;12.20;;;3.13;;
4698;SDS011;33708;49.466;11.176;2023-05-29T14:59:55;12.20;;;3.20;;
4698;SDS011;33708;49.466;11.176;2023-05-29T15:02:20;18.23;;;3.10;;
4698;SDS011;33708;49.466;11.176;2023-05-29T15:04:46;14.90;;;3.03;;